createdAt,value
2023-01-21T00:00:58.755Z,6.47
2023-01-21T00:03:25.680Z,7.70
2023-01-21T00:05:52.724Z,7.97
2023-01-21T00:08:19.559Z,6.70
2023-01-21T00:10:46.511Z,7.05
2023-01-21T00:13:13.382Z,8.18
2023-01-21T00:15:40.298Z,7.85
2023-01-21T00:18:07.662Z,7.97
2023-01-21T00:20:34.805Z,7.18
2023-01-21T00:23:01.565Z,7.63
2023-01-21T00:25:28.684Z,10.73
2023-01-21T00:27:55.484Z,12.50
2023-01-21T00:30:22.609Z,9.02
2023-01-21T00:32:49.344Z,11.30
2023-01-21T00:35:16.479Z,12.70
2023-01-21T00:37:43.253Z,10.55
2023-01-21T00:40:10.739Z,6.50
2023-01-21T00:42:37.620Z,8.75
2023-01-21T00:45:04.718Z,10.27
2023-01-21T00:47:31.487Z,9.63
2023-01-21T00:49:58.216Z,7.00
2023-01-21T00:52:24.972Z,6.63
2023-01-21T00:54:51.763Z,6.18
2023-01-21T00:57:18.560Z,6.07
2023-01-21T00:59:45.615Z,5.43
2023-01-21T01:02:12.449Z,5.47
2023-01-21T01:04:39.409Z,5.65
2023-01-21T01:07:06.364Z,5.68
2023-01-21T01:09:33.126Z,5.25
2023-01-21T01:11:59.864Z,5.78
2023-01-21T01:14:26.700Z,5.80
2023-01-21T01:16:53.428Z,5.80
2023-01-21T01:19:20.158Z,5.53
2023-01-21T01:21:47.032Z,5.47
2023-01-21T01:24:13.805Z,5.65
2023-01-21T01:26:42.236Z,6.18
2023-01-21T01:29:12.547Z,5.93
2023-01-21T01:31:39.578Z,6.18
2023-01-21T01:34:06.744Z,6.97
2023-01-21T01:36:33.501Z,7.18
2023-01-21T01:39:00.238Z,7.30
2023-01-21T01:41:29.900Z,6.85
2023-01-21T01:44:27.496Z,6.55
2023-01-21T01:46:58.356Z,7.65
2023-01-21T01:49:25.120Z,7.72
2023-01-21T01:51:57.162Z,7.47
2023-01-21T01:54:30.015Z,7.47
2023-01-21T01:57:01.104Z,7.80
2023-01-21T01:59:29.245Z,8.50
2023-01-21T02:01:58.686Z,7.88
2023-01-21T02:04:30.178Z,7.55
2023-01-21T02:06:58.136Z,7.20
2023-01-21T02:09:29.673Z,7.00
2023-01-21T02:11:59.408Z,5.63
2023-01-21T02:14:27.416Z,7.20
2023-01-21T02:17:07.330Z,7.57
2023-01-21T02:20:04.845Z,7.88
2023-01-21T02:22:57.196Z,8.15
2023-01-21T02:25:48.156Z,8.30
2023-01-21T02:28:52.638Z,6.88
2023-01-21T02:31:32.621Z,7.78
2023-01-21T02:34:08.040Z,8.27
2023-01-21T02:36:55.794Z,8.27
2023-01-21T02:39:43.761Z,8.07
2023-01-21T02:42:25.930Z,8.07
2023-01-21T02:44:55.441Z,8.48
2023-01-21T02:47:45.224Z,7.88
2023-01-21T02:50:20.806Z,7.47
2023-01-21T02:53:01.595Z,9.18
2023-01-21T02:55:32.024Z,9.38
2023-01-21T02:58:15.588Z,8.48
2023-01-21T03:01:00.558Z,10.60
2023-01-21T03:03:57.218Z,8.57
2023-01-21T03:06:33.083Z,8.82
2023-01-21T03:09:04.655Z,9.23
2023-01-21T03:11:31.585Z,9.23
2023-01-21T03:14:38.360Z,9.30
2023-01-21T03:17:33.958Z,8.98
2023-01-21T03:20:37.622Z,9.45
2023-01-21T03:23:10.082Z,8.55
2023-01-21T03:25:38.087Z,8.90
2023-01-21T03:28:11.874Z,9.35
2023-01-21T03:30:43.823Z,9.50
2023-01-21T03:33:14.061Z,8.43
2023-01-21T03:35:45.419Z,9.55
2023-01-21T03:38:24.027Z,8.57
2023-01-21T03:40:58.653Z,8.25
2023-01-21T03:43:25.649Z,9.00
2023-01-21T03:46:05.060Z,9.07
2023-01-21T03:48:36.997Z,9.00
2023-01-21T03:51:09.875Z,9.05
2023-01-21T03:53:36.678Z,9.80
2023-01-21T03:56:04.252Z,9.52
2023-01-21T03:58:30.925Z,8.25
2023-01-21T04:00:57.642Z,8.38
2023-01-21T04:03:25.161Z,8.20
2023-01-21T04:05:51.863Z,7.78
2023-01-21T04:08:18.628Z,8.65
2023-01-21T04:10:45.406Z,8.32
2023-01-21T04:13:12.122Z,8.75
2023-01-21T04:15:38.825Z,7.70
2023-01-21T04:18:05.607Z,8.10
2023-01-21T04:20:32.389Z,8.05
2023-01-21T04:22:59.150Z,8.00
2023-01-21T04:25:25.812Z,7.45
2023-01-21T04:27:52.552Z,6.97
2023-01-21T04:30:19.408Z,6.70
2023-01-21T04:32:46.491Z,8.00
2023-01-21T04:35:13.165Z,8.48
2023-01-21T04:37:39.899Z,8.45
2023-01-21T04:40:07.056Z,7.15
2023-01-21T04:42:33.709Z,6.97
2023-01-21T04:45:00.322Z,7.60
2023-01-21T04:47:26.935Z,7.90
2023-01-21T04:49:53.653Z,7.88
2023-01-21T04:52:20.417Z,8.40
2023-01-21T04:54:47.160Z,7.93
2023-01-21T04:57:13.987Z,9.00
2023-01-21T04:59:40.649Z,8.82
2023-01-21T05:02:07.333Z,8.50
2023-01-21T05:04:34.181Z,8.68
2023-01-21T05:07:00.879Z,7.55
2023-01-21T05:09:27.722Z,7.82
2023-01-21T05:11:57.014Z,8.75
2023-01-21T05:14:23.649Z,7.55
2023-01-21T05:16:50.488Z,8.50
2023-01-21T05:19:17.247Z,7.40
2023-01-21T05:21:43.905Z,8.00
2023-01-21T05:24:10.626Z,7.47
2023-01-21T05:26:37.315Z,8.38
2023-01-21T05:29:04.039Z,8.70
2023-01-21T05:31:30.841Z,7.68
2023-01-21T05:33:58.349Z,8.15
2023-01-21T05:36:25.256Z,7.65
2023-01-21T05:38:51.966Z,7.32
2023-01-21T05:41:18.923Z,7.50
2023-01-21T05:43:45.744Z,6.68
2023-01-21T05:46:12.539Z,7.90
2023-01-21T05:48:39.223Z,7.32
2023-01-21T05:51:06.355Z,7.30
2023-01-21T05:53:33.030Z,6.82
2023-01-21T05:55:59.768Z,8.10
2023-01-21T05:58:27.077Z,8.38
2023-01-21T06:00:54.286Z,7.63
2023-01-21T06:03:21.017Z,8.73
2023-01-21T06:05:49.627Z,8.90
2023-01-21T06:08:16.401Z,9.25
2023-01-21T06:10:43.163Z,8.90
2023-01-21T06:13:15.128Z,9.18
2023-01-21T06:15:42.072Z,12.68
2023-01-21T06:18:09.041Z,11.82
2023-01-21T06:20:36.411Z,11.95
2023-01-21T06:23:06.158Z,11.93
2023-01-21T06:25:33.406Z,16.50
2023-01-21T06:28:01.131Z,21.17
2023-01-21T06:30:27.900Z,17.20
2023-01-21T06:32:54.550Z,16.88
2023-01-21T06:35:21.395Z,19.75
2023-01-21T06:37:47.997Z,20.50
2023-01-21T06:40:15.687Z,22.23
2023-01-21T06:42:45.778Z,22.80
2023-01-21T06:45:12.910Z,21.58
2023-01-21T06:47:43.616Z,29.50
2023-01-21T06:50:16.819Z,27.85
2023-01-21T06:52:45.969Z,21.48
2023-01-21T06:55:13.183Z,18.85
2023-01-21T06:57:40.328Z,20.50
2023-01-21T07:00:08.670Z,23.27
2023-01-21T07:02:35.492Z,23.27
2023-01-21T07:05:02.984Z,20.17
2023-01-21T07:07:29.644Z,19.80
2023-01-21T07:09:56.295Z,22.33
2023-01-21T07:12:23.055Z,21.08
2023-01-21T07:14:49.706Z,21.00
2023-01-21T07:17:16.575Z,21.38
2023-01-21T07:19:43.264Z,24.25
2023-01-21T07:22:09.918Z,47.35
2023-01-21T07:24:36.583Z,40.85
2023-01-21T07:27:05.188Z,24.45
2023-01-21T07:29:31.967Z,24.42
2023-01-21T07:31:58.710Z,24.42
2023-01-21T07:34:25.367Z,27.35
2023-01-21T07:36:51.976Z,23.27
2023-01-21T07:39:18.617Z,27.83
2023-01-21T07:41:45.312Z,24.70
2023-01-21T07:44:12.236Z,20.48
2023-01-21T07:46:39.090Z,20.60
2023-01-21T07:49:05.773Z,22.08
2023-01-21T07:51:32.378Z,24.88
2023-01-21T07:53:59.039Z,27.60
2023-01-21T07:56:26.872Z,26.40
2023-01-21T07:58:53.781Z,20.30
2023-01-21T08:01:20.531Z,18.58
2023-01-21T08:03:47.178Z,21.70
2023-01-21T08:06:13.832Z,23.17
2023-01-21T08:08:40.527Z,19.52
2023-01-21T08:11:07.159Z,21.70
2023-01-21T08:13:33.763Z,17.17
2023-01-21T08:16:00.552Z,20.25
2023-01-21T08:18:27.213Z,17.83
2023-01-21T08:20:58.162Z,17.98
2023-01-21T08:23:26.230Z,17.70
2023-01-21T08:25:53.613Z,17.58
2023-01-21T08:28:20.460Z,22.02
2023-01-21T08:30:47.183Z,18.05
2023-01-21T08:33:14.506Z,17.08
2023-01-21T08:35:41.122Z,16.05
2023-01-21T08:38:07.784Z,18.73
2023-01-21T08:40:34.575Z,16.50
2023-01-21T08:43:02.868Z,17.10
2023-01-21T08:45:30.454Z,17.95
2023-01-21T08:47:57.174Z,17.80
2023-01-21T08:50:24.079Z,16.35
2023-01-21T08:52:55.167Z,15.30
2023-01-21T08:55:25.164Z,18.52
2023-01-21T08:57:53.440Z,35.20
2023-01-21T09:00:21.568Z,15.48
2023-01-21T09:02:50.700Z,23.38
2023-01-21T09:05:18.669Z,17.00
2023-01-21T09:07:46.088Z,15.57
2023-01-21T09:10:13.152Z,17.30
2023-01-21T09:12:42.873Z,16.60
2023-01-21T09:15:09.725Z,15.48
2023-01-21T09:17:38.322Z,24.02
2023-01-21T09:20:05.430Z,24.77
2023-01-21T09:22:32.139Z,19.77
2023-01-21T09:24:58.768Z,13.63
2023-01-21T09:27:27.501Z,13.95
2023-01-21T09:29:54.739Z,12.85
2023-01-21T09:32:21.451Z,17.23
2023-01-21T09:34:48.089Z,17.73
2023-01-21T09:37:14.711Z,12.35
2023-01-21T09:39:41.398Z,13.45
2023-01-21T09:42:23.151Z,16.13
2023-01-21T09:44:52.604Z,14.00
2023-01-21T09:47:31.846Z,13.20
2023-01-21T09:50:14.334Z,14.32
2023-01-21T09:55:17.766Z,11.68
2023-01-21T09:57:53.513Z,12.15
2023-01-21T10:00:35.409Z,13.02
2023-01-21T10:03:03.111Z,15.45
2023-01-21T10:06:03.918Z,19.45
2023-01-21T10:08:53.715Z,12.10
2023-01-21T10:11:26.378Z,11.68
2023-01-21T10:14:23.757Z,11.35
2023-01-21T10:17:14.392Z,15.55
2023-01-21T10:19:51.569Z,12.68
2023-01-21T10:22:22.524Z,12.63
2023-01-21T10:25:03.057Z,15.23
2023-01-21T10:27:32.960Z,14.80
2023-01-21T10:30:07.875Z,14.35
2023-01-21T10:32:37.801Z,12.95
2023-01-21T10:35:18.602Z,14.10
2023-01-21T10:38:12.521Z,18.27
2023-01-21T10:40:47.178Z,12.43
2023-01-21T10:43:19.772Z,12.70
2023-01-21T10:46:11.560Z,12.85
2023-01-21T10:48:47.284Z,14.00
2023-01-21T10:51:32.040Z,11.90
2023-01-21T10:54:35.928Z,13.68
2023-01-21T10:57:26.916Z,13.23
2023-01-21T10:59:56.458Z,17.52
2023-01-21T11:02:32.038Z,13.35
2023-01-21T11:05:03.570Z,18.00
2023-01-21T11:07:36.234Z,14.48
2023-01-21T11:10:05.037Z,13.75
2023-01-21T11:12:32.851Z,14.60
2023-01-21T11:15:12.924Z,14.93
2023-01-21T11:17:42.280Z,16.05
2023-01-21T11:20:33.311Z,18.40
2023-01-21T11:23:03.765Z,17.13
2023-01-21T11:25:43.501Z,15.40
2023-01-21T11:28:24.581Z,18.98
2023-01-21T11:31:24.708Z,15.65
2023-01-21T11:33:52.653Z,15.70
2023-01-21T11:36:21.340Z,14.90
2023-01-21T11:39:14.016Z,17.55
2023-01-21T11:44:19.502Z,13.88
2023-01-21T11:46:46.321Z,14.73
2023-01-21T11:49:15.778Z,14.73
2023-01-21T11:51:44.719Z,16.08
2023-01-21T11:54:19.567Z,12.63
2023-01-21T11:57:03.111Z,14.95
2023-01-21T11:59:39.520Z,14.98
2023-01-21T12:02:25.158Z,13.55
2023-01-21T12:04:55.412Z,15.15
2023-01-21T12:07:26.753Z,12.70
2023-01-21T12:10:19.621Z,13.73
2023-01-21T12:12:49.401Z,14.05
2023-01-21T12:15:33.330Z,13.40
2023-01-21T12:18:48.503Z,14.70
2023-01-21T12:21:45.641Z,12.75
2023-01-21T12:24:21.342Z,13.50
2023-01-21T12:26:54.382Z,14.30
2023-01-21T12:29:45.219Z,16.63
2023-01-21T12:32:23.620Z,13.65
2023-01-21T12:35:02.436Z,15.48
2023-01-21T12:37:31.156Z,15.02
2023-01-21T12:40:03.796Z,14.77
2023-01-21T12:42:37.886Z,14.45
2023-01-21T12:45:27.909Z,15.30
2023-01-21T12:48:01.414Z,13.98
2023-01-21T12:50:42.070Z,13.50
2023-01-21T12:53:36.316Z,13.18
2023-01-21T12:56:18.040Z,14.45
2023-01-21T12:59:07.907Z,12.85
2023-01-21T13:01:57.372Z,13.38
2023-01-21T13:04:53.933Z,17.70
2023-01-21T13:07:51.118Z,13.40
2023-01-21T13:10:39.953Z,13.88
2023-01-21T13:13:17.071Z,11.80
2023-01-21T13:15:48.191Z,13.73
2023-01-21T13:18:21.261Z,11.48
2023-01-21T13:20:54.432Z,26.73
2023-01-21T13:23:41.940Z,16.65
2023-01-21T13:26:41.481Z,14.45
2023-01-21T13:29:32.100Z,26.63
2023-01-21T13:32:12.499Z,15.35
2023-01-21T13:35:09.011Z,15.90
2023-01-21T13:37:47.949Z,14.75
2023-01-21T13:40:39.574Z,16.30
2023-01-21T13:43:18.565Z,15.90
2023-01-21T13:46:11.029Z,17.48
2023-01-21T13:48:55.887Z,15.75
2023-01-21T13:51:36.593Z,15.60
2023-01-21T13:54:14.733Z,17.73
2023-01-21T13:56:56.467Z,16.75
2023-01-21T13:59:42.320Z,18.05
2023-01-21T14:02:21.680Z,18.83
2023-01-21T14:05:08.163Z,18.92
2023-01-21T14:07:53.849Z,19.92
2023-01-21T14:10:40.448Z,21.00
2023-01-21T14:13:25.957Z,18.77
2023-01-21T14:16:05.823Z,19.73
2023-01-21T14:18:53.690Z,24.08
2023-01-21T14:21:51.838Z,19.58
2023-01-21T14:24:40.340Z,18.60
2023-01-21T14:27:15.837Z,17.30
2023-01-21T14:29:51.690Z,16.70
2023-01-21T14:32:52.342Z,16.05
2023-01-21T14:35:28.373Z,15.18
2023-01-21T14:38:18.261Z,15.80
2023-01-21T14:40:49.278Z,17.58
2023-01-21T14:43:31.915Z,15.45
2023-01-21T14:46:00.988Z,12.88
2023-01-21T14:48:41.961Z,14.55
2023-01-21T14:51:20.229Z,13.80
2023-01-21T14:53:49.964Z,15.50
2023-01-21T14:56:26.071Z,14.38
2023-01-21T14:58:59.939Z,14.20
2023-01-21T15:01:32.095Z,15.57
2023-01-21T15:04:02.677Z,17.60
2023-01-21T15:06:29.931Z,20.08
2023-01-21T15:09:00.019Z,15.57
2023-01-21T15:11:31.822Z,14.15
2023-01-21T15:14:22.726Z,27.67
2023-01-21T15:16:49.412Z,18.38
2023-01-21T15:19:25.320Z,22.27
2023-01-21T15:22:15.364Z,19.23
2023-01-21T15:25:20.764Z,18.10
2023-01-21T15:28:25.001Z,16.92
2023-01-21T15:31:00.121Z,11.38
2023-01-21T15:33:29.041Z,20.30
2023-01-21T15:35:57.727Z,14.07
2023-01-21T15:38:24.920Z,13.48
2023-01-21T15:40:54.909Z,21.73
2023-01-21T15:43:39.580Z,12.32
2023-01-21T15:46:29.323Z,15.57
2023-01-21T15:49:32.974Z,15.57
2023-01-21T15:52:22.380Z,15.60
2023-01-21T15:55:10.640Z,12.05
2023-01-21T15:57:58.447Z,16.08
2023-01-21T16:00:53.591Z,12.55
2023-01-21T16:03:32.808Z,12.02
2023-01-21T16:06:37.971Z,15.63
2023-01-21T16:09:10.029Z,12.77
2023-01-21T16:11:53.139Z,15.30
2023-01-21T16:14:45.629Z,12.80
2023-01-21T16:17:25.782Z,14.45
2023-01-21T16:19:56.308Z,15.52
2023-01-21T16:22:27.229Z,14.50
2023-01-21T16:25:00.644Z,14.40
2023-01-21T16:27:31.000Z,11.55
2023-01-21T16:29:59.955Z,14.35
2023-01-21T16:32:27.507Z,11.15
2023-01-21T16:34:54.639Z,10.27
2023-01-21T16:37:24.191Z,9.80
2023-01-21T16:39:56.300Z,11.25
2023-01-21T16:42:36.711Z,12.05
2023-01-21T16:45:17.766Z,11.23
2023-01-21T16:47:46.725Z,12.15
2023-01-21T16:50:20.751Z,11.90
2023-01-21T16:52:47.839Z,11.43
2023-01-21T16:55:23.440Z,11.38
2023-01-21T16:57:52.369Z,14.90
2023-01-21T17:00:30.608Z,15.65
2023-01-21T17:02:58.947Z,15.00
2023-01-21T17:05:36.991Z,14.73
2023-01-21T17:08:11.910Z,16.27
2023-01-21T17:10:56.039Z,21.58
2023-01-21T17:13:23.186Z,19.70
2023-01-21T17:15:57.504Z,19.73
2023-01-21T17:18:26.111Z,20.58
2023-01-21T17:20:58.875Z,26.52
2023-01-21T17:23:29.461Z,21.40
2023-01-21T17:26:02.187Z,23.05
2023-01-21T17:28:44.326Z,21.48
2023-01-21T17:31:16.932Z,24.55
2023-01-21T17:33:44.138Z,28.80
2023-01-21T17:36:16.037Z,22.55
2023-01-21T17:38:45.593Z,26.02
2023-01-21T17:41:40.999Z,24.92
2023-01-21T17:44:24.937Z,22.90
2023-01-21T17:46:54.208Z,23.63
2023-01-21T17:49:25.720Z,21.48
2023-01-21T17:51:56.561Z,19.33
2023-01-21T17:54:26.575Z,22.10
2023-01-21T17:56:58.348Z,28.77
2023-01-21T17:59:38.103Z,20.83
2023-01-21T18:02:10.685Z,20.77
2023-01-21T18:04:37.643Z,22.52
2023-01-21T18:07:27.360Z,20.15
2023-01-21T18:09:55.301Z,18.05
2023-01-21T18:12:21.994Z,17.00
2023-01-21T18:14:48.803Z,19.17
2023-01-21T18:17:18.425Z,18.80
2023-01-21T18:19:45.736Z,19.33
2023-01-21T18:22:31.790Z,17.73
2023-01-21T18:25:00.350Z,19.02
2023-01-21T18:27:27.052Z,17.13
2023-01-21T18:29:53.869Z,16.33
2023-01-21T18:32:20.554Z,17.83
2023-01-21T18:34:47.201Z,16.95
2023-01-21T18:37:18.479Z,15.55
2023-01-21T18:39:45.376Z,16.53
2023-01-21T18:42:14.879Z,15.35
2023-01-21T18:44:41.743Z,15.00
2023-01-21T18:47:13.475Z,15.65
2023-01-21T18:49:40.381Z,14.98
2023-01-21T18:52:09.700Z,16.98
2023-01-21T18:54:36.359Z,14.77
2023-01-21T18:57:03.021Z,15.50
2023-01-21T18:59:29.756Z,16.25
2023-01-21T19:01:57.005Z,15.60
2023-01-21T19:04:23.760Z,15.98
2023-01-21T19:06:50.576Z,15.98
2023-01-21T19:09:23.904Z,16.17
2023-01-21T19:11:50.844Z,16.75
2023-01-21T19:14:17.976Z,14.10
2023-01-21T19:16:45.396Z,15.32
2023-01-21T19:19:13.560Z,14.90
2023-01-21T19:21:40.363Z,17.15
2023-01-21T19:24:09.748Z,16.38
2023-01-21T19:26:38.310Z,17.52
2023-01-21T19:29:05.268Z,15.50
2023-01-21T19:31:32.588Z,18.02
2023-01-21T19:33:59.349Z,16.20
2023-01-21T19:36:26.579Z,15.90
2023-01-21T19:38:56.182Z,15.68
2023-01-21T19:41:23.391Z,16.85
2023-01-21T19:43:50.328Z,16.13
2023-01-21T19:46:17.871Z,13.50
2023-01-21T19:48:44.843Z,17.80
2023-01-21T19:51:11.580Z,17.13
2023-01-21T19:53:38.403Z,17.25
2023-01-21T19:56:05.690Z,17.67
2023-01-21T19:58:32.856Z,16.80
2023-01-21T20:00:59.568Z,16.15
2023-01-21T20:03:27.849Z,15.98
2023-01-21T20:06:01.433Z,16.95
2023-01-21T20:08:29.805Z,17.30
2023-01-21T20:10:56.754Z,16.75
2023-01-21T20:13:23.931Z,19.98
2023-01-21T20:15:52.366Z,20.33
2023-01-21T20:18:19.043Z,18.85
2023-01-21T20:20:45.708Z,18.05
2023-01-21T20:23:16.714Z,17.67
2023-01-21T20:25:45.335Z,18.40
2023-01-21T20:28:19.313Z,21.45
2023-01-21T20:30:47.777Z,17.85
2023-01-21T20:33:16.941Z,16.98
2023-01-21T20:35:46.781Z,17.33
2023-01-21T20:38:16.228Z,17.55
2023-01-21T20:40:42.985Z,18.02
2023-01-21T20:43:10.154Z,17.30
2023-01-21T20:45:46.707Z,18.92
2023-01-21T20:48:51.701Z,18.60
2023-01-21T20:51:19.252Z,20.42
2023-01-21T20:53:46.068Z,19.85
2023-01-21T20:56:19.175Z,19.98
2023-01-21T20:58:47.790Z,17.67
2023-01-21T21:01:16.244Z,17.08
2023-01-21T21:03:43.112Z,18.65
2023-01-21T21:06:13.891Z,17.60
2023-01-21T21:08:41.336Z,17.88
2023-01-21T21:11:08.505Z,18.45
2023-01-21T21:13:35.348Z,17.80
2023-01-21T21:16:03.129Z,18.10
2023-01-21T21:18:29.863Z,18.70
2023-01-21T21:20:56.568Z,17.77
2023-01-21T21:23:23.760Z,18.75
2023-01-21T21:25:50.676Z,17.92
2023-01-21T21:28:18.334Z,16.73
2023-01-21T21:30:45.089Z,18.90
2023-01-21T21:33:18.942Z,16.45
2023-01-21T21:35:46.682Z,19.13
2023-01-21T21:38:18.505Z,17.60
2023-01-21T21:40:47.425Z,25.30
2023-01-21T21:43:35.468Z,19.08
2023-01-21T21:46:27.679Z,20.98
2023-01-21T21:48:54.356Z,19.35
2023-01-21T21:51:24.039Z,15.38
2023-01-21T21:53:51.393Z,21.50
2023-01-21T21:56:23.214Z,16.70
2023-01-21T21:58:50.930Z,21.40
2023-01-21T22:01:23.419Z,15.88
2023-01-21T22:03:50.802Z,14.57
2023-01-21T22:06:19.277Z,14.60
2023-01-21T22:08:46.527Z,15.57
2023-01-21T22:11:16.140Z,14.07
2023-01-21T22:13:43.913Z,12.98
2023-01-21T22:16:15.722Z,12.55
2023-01-21T22:18:43.119Z,14.88
2023-01-21T22:21:20.351Z,12.57
2023-01-21T22:23:47.256Z,12.07
2023-01-21T22:26:16.454Z,12.95
2023-01-21T22:28:44.084Z,12.95
2023-01-21T22:31:17.030Z,12.70
2023-01-21T22:33:44.228Z,12.30
2023-01-21T22:36:14.759Z,13.25
2023-01-21T22:51:30.643Z,12.75
2023-01-21T22:53:57.809Z,12.45
2023-01-21T22:56:44.783Z,11.48
2023-01-21T22:59:11.601Z,10.82
2023-01-21T23:01:38.555Z,11.45
2023-01-21T23:04:05.311Z,13.07
2023-01-21T23:06:31.987Z,12.23
2023-01-21T23:08:58.802Z,13.30
2023-01-21T23:11:25.425Z,12.77
2023-01-21T23:13:54.013Z,12.88
2023-01-21T23:16:21.160Z,12.93
2023-01-21T23:18:48.389Z,12.18
2023-01-21T23:21:18.005Z,13.02
2023-01-21T23:23:44.897Z,14.00
2023-01-21T23:26:13.139Z,13.18
2023-01-21T23:28:39.984Z,13.30
2023-01-21T23:31:12.765Z,14.73
2023-01-21T23:33:41.302Z,13.40
2023-01-21T23:36:13.257Z,13.02
2023-01-21T23:41:08.804Z,13.27
2023-01-21T23:43:36.092Z,12.98
2023-01-21T23:46:07.708Z,13.23
2023-01-21T23:48:34.430Z,14.07
2023-01-21T23:51:03.798Z,13.07
2023-01-21T23:53:31.371Z,11.45
2023-01-21T23:56:16.965Z,13.05
2023-01-21T23:58:43.739Z,12.05
